Terminal Aerodrome Forecast
Issued by NWS

Home | Current Version | Previous Version | Text Only | Print | Product List | Glossary On
Versions: 1 2 3 4 5 6 7 8 9 10 11 12
000
FTUS43 KGRB 172300
TAFMTW
TAF
KMTW 172334Z 1800/1824 26008KT P6SM SCT200
     FM180200 04010G18KT P6SM BKN070
     FM180500 03010G16KT P6SM BKN015 BKN035
     FM181100 04009KT P6SM SCT020
     FM181600 06007KT P6SM SCT025 SCT050=

USA.gov is the U.S. government's official web portal to all federal, state and local government web resources and services.